Time,TemperatureF,DewpointF,PressureIn,WindDirection,WindDirectionDegrees,WindSpeedMPH,WindSpeedGustMPH,Humidity,HourlyPrecipIn,Conditions,Clouds,dailyrainin,SoftwareType,DateUTC
2013-01-17 00:14:00,25.0,22.5,29.71,North,0,0.0,0.0,91,0.00,,,-99.99,open3600,2013-01-16 23:14:00,
2013-01-17 00:29:00,25.0,22.5,29.72,NNW,338,0.0,0.0,91,0.00,,,-99.99,open3600,2013-01-16 23:29:00,
2013-01-17 00:47:00,25.0,22.5,29.72,NNW,338,0.0,0.0,91,0.00,,,-99.99,open3600,2013-01-16 23:47:00,
2013-01-17 01:02:00,25.0,22.5,29.72,NNW,338,0.0,0.0,91,0.00,,,-99.99,open3600,2013-01-17 00:02:00,
2013-01-17 01:18:00,25.0,22.5,29.72,North,0,0.0,0.0,91,0.00,,,-99.99,open3600,2013-01-17 00:18:00,
2013-01-17 01:33:00,24.8,22.3,29.72,NNW,338,0.0,0.0,91,0.00,,,-99.99,open3600,2013-01-17 00:33:00,
2013-01-17 01:49:00,24.8,22.3,29.72,NNW,338,0.0,0.0,91,0.00,,,-99.99,open3600,2013-01-17 00:49:00,
2013-01-17 02:05:00,24.6,22.1,29.72,North,0,0.0,0.0,91,0.00,,,-99.99,open3600,2013-01-17 01:05:00,
2013-01-17 02:20:00,24.6,22.1,29.72,North,0,0.0,0.0,91,0.00,,,-99.99,open3600,2013-01-17 01:20:00,
2013-01-17 02:36:00,24.6,22.1,29.72,NNW,338,0.0,0.0,91,0.00,,,-99.99,open3600,2013-01-17 01:36:00,
2013-01-17 02:52:00,24.6,22.1,29.72,NNW,338,0.0,0.0,91,0.00,,,-99.99,open3600,2013-01-17 01:52:00,
2013-01-17 03:07:00,24.8,22.3,29.72,North,0,0.0,0.0,91,0.00,,,-99.99,open3600,2013-01-17 02:07:00,
2013-01-17 03:23:00,24.6,22.1,29.72,North,0,0.0,0.0,91,0.00,,,-99.99,open3600,2013-01-17 02:23:00,
2013-01-17 03:41:00,24.6,22.1,29.72,North,0,0.0,0.0,91,0.00,,,-99.99,open3600,2013-01-17 02:41:00,
2013-01-17 03:56:00,24.6,22.1,29.72,NNW,338,0.0,0.0,91,0.00,,,-99.99,open3600,2013-01-17 02:56:00,
2013-01-17 04:12:00,24.6,22.1,29.72,NNW,338,0.0,0.0,91,0.00,,,-99.99,open3600,2013-01-17 03:12:00,
2013-01-17 04:28:00,24.6,22.1,29.71,North,0,0.0,0.0,91,0.00,,,-99.99,open3600,2013-01-17 03:28:00,
2013-01-17 04:43:00,24.4,21.9,29.71,NNW,338,0.0,0.0,91,0.00,,,-99.99,open3600,2013-01-17 03:43:00,
2013-01-17 04:59:00,24.4,21.9,29.72,NW,315,0.0,0.0,91,0.00,,,-99.99,open3600,2013-01-17 03:59:00,
2013-01-17 05:15:00,24.4,21.9,29.72,NNW,338,0.0,-999.0,91,-99.99,,,-99.99,open3600,2013-01-17 04:15:00,
2013-01-17 05:30:00,24.6,22.1,29.73,NW,315,0.0,-999.0,91,-99.99,,,-99.99,open3600,2013-01-17 04:30:00,
2013-01-17 05:46:00,24.6,22.1,29.73,NW,315,0.0,0.0,91,-99.99,,,-99.99,open3600,2013-01-17 04:46:00,
2013-01-17 06:18:00,25.0,22.5,29.74,NW,315,0.0,0.0,91,-99.99,,,-99.99,open3600,2013-01-17 05:18:00,
2013-01-17 06:34:00,25.0,22.1,29.74,NNW,338,0.0,0.0,90,0.00,,,-99.99,open3600,2013-01-17 05:34:00,
2013-01-17 06:49:00,25.0,22.1,29.73,North,0,0.0,0.0,90,0.00,,,-99.99,open3600,2013-01-17 05:49:00,
2013-01-17 07:05:00,25.0,22.1,29.74,NNW,338,0.0,0.0,90,0.00,,,-99.99,open3600,2013-01-17 06:05:00,
2013-01-17 07:20:00,25.0,22.5,29.74,North,0,0.0,0.0,91,0.00,,,-99.99,open3600,2013-01-17 06:20:00,
2013-01-17 07:36:00,25.2,22.6,29.74,North,0,0.0,0.0,91,0.00,,,-99.99,open3600,2013-01-17 06:36:00,
2013-01-17 07:52:00,25.2,22.6,29.74,NNW,338,0.0,0.0,91,0.00,,,-99.99,open3600,2013-01-17 06:52:00,
2013-01-17 08:08:00,25.2,22.3,29.75,NNE,22,0.0,0.0,90,0.00,,,-99.99,open3600,2013-01-17 07:08:00,
2013-01-17 08:23:00,25.2,22.3,29.77,NE,45,0.0,0.0,90,0.00,,,-99.99,open3600,2013-01-17 07:23:00,
2013-01-17 08:39:00,25.2,22.3,29.77,NNE,22,0.0,0.0,90,0.00,,,-99.99,open3600,2013-01-17 07:39:00,
2013-01-17 08:55:00,25.3,22.5,29.78,NE,45,0.0,0.0,90,0.00,,,-99.99,open3600,2013-01-17 07:55:00,
2013-01-17 09:10:00,25.3,22.5,29.78,North,0,0.0,0.0,90,0.00,,,-99.99,open3600,2013-01-17 08:10:00,
2013-01-17 09:27:00,25.3,22.5,29.78,NNE,22,0.0,0.0,90,0.00,,,-99.99,open3600,2013-01-17 08:27:00,
2013-01-17 09:43:00,25.3,22.5,29.78,NNE,22,0.0,0.0,90,0.00,,,-99.99,open3600,2013-01-17 08:43:00,
2013-01-17 09:59:00,25.3,22.5,29.78,NE,45,0.0,0.0,90,0.00,,,-99.99,open3600,2013-01-17 08:59:00,
2013-01-17 10:14:00,25.3,22.5,29.78,NE,45,0.0,0.0,90,0.00,,,-99.99,open3600,2013-01-17 09:14:00,
2013-01-17 10:30:00,25.3,22.5,29.78,NNE,22,0.0,0.0,90,0.00,,,-99.99,open3600,2013-01-17 09:30:00,
2013-01-17 10:45:00,25.5,22.6,29.78,NE,45,0.0,0.0,90,0.00,,,-99.99,open3600,2013-01-17 09:45:00,
2013-01-17 11:02:00,25.5,22.6,29.79,NE,45,0.0,0.0,90,0.00,,,-99.99,open3600,2013-01-17 10:02:00,
2013-01-17 11:19:00,25.7,22.8,29.78,NE,45,0.0,0.0,90,0.00,,,-99.99,open3600,2013-01-17 10:19:00,
2013-01-17 11:34:00,25.9,23.0,29.79,NE,45,0.0,0.0,90,0.00,,,-99.99,open3600,2013-01-17 10:34:00,
2013-01-17 11:35:00,25.9,23.0,29.79,NE,45,0.0,0.0,90,0.00,,,-99.99,open3600,2013-01-17 10:35:00,
2013-01-17 12:08:00,25.7,22.8,29.78,NE,45,0.0,0.0,90,0.00,,,-99.99,open3600,2013-01-17 11:08:00,
2013-01-17 12:24:00,25.5,22.6,29.78,NE,45,0.0,0.0,90,0.00,,,-99.99,open3600,2013-01-17 11:24:00,
2013-01-17 12:39:00,25.5,22.6,29.79,North,0,0.0,0.0,90,0.00,,,-99.99,open3600,2013-01-17 11:39:00,
2013-01-17 13:10:00,25.3,22.5,29.79,North,0,0.0,-999.0,90,-99.99,,,-99.99,open3600,2013-01-17 12:10:00,
2013-01-17 13:11:00,25.5,22.6,29.79,NNE,22,0.0,-999.0,90,-99.99,,,-99.99,open3600,2013-01-17 12:11:00,
2013-01-17 20:58:00,23.7,20.7,29.86,North,0,0.0,-999.0,89,-99.99,,,-99.99,open3600,2013-01-17 19:58:00,
2013-01-17 21:02:00,23.7,20.7,29.86,North,0,0.0,-999.0,89,-99.99,,,-99.99,open3600,2013-01-17 20:02:00,